sensor_id;sensor_type;location;lat;lon;timestamp;pressure;altitude;pressure_sealevel;temperature;humidity
78625;BME280;67944;0.000;0.000;2023-06-22T00:00:19;100659.28;;;29.45;39.79
78625;BME280;67944;0.000;0.000;2023-06-22T00:02:45;100655.00;;;29.44;40.06
78625;BME280;67944;0.000;0.000;2023-06-22T00:05:10;100656.88;;;29.44;40.01
78625;BME280;67944;0.000;0.000;2023-06-22T00:07:36;100658.97;;;29.42;40.27
78625;BME280;67944;0.000;0.000;2023-06-22T00:10:01;100668.88;;;29.41;40.24
78625;BME280;67944;0.000;0.000;2023-06-22T00:12:26;100676.13;;;29.41;40.36
78625;BME280;67944;0.000;0.000;2023-06-22T00:14:52;100671.81;;;29.40;39.89
78625;BME280;67944;0.000;0.000;2023-06-22T00:17:17;100666.63;;;29.38;40.32
78625;BME280;67944;0.000;0.000;2023-06-22T00:19:43;100681.91;;;29.38;40.41
78625;BME280;67944;0.000;0.000;2023-06-22T00:22:12;100691.00;;;29.37;40.45
78625;BME280;67944;0.000;0.000;2023-06-22T00:24:37;100727.75;;;29.36;40.35
78625;BME280;67944;0.000;0.000;2023-06-22T00:27:03;100734.19;;;29.35;40.20
78625;BME280;67944;0.000;0.000;2023-06-22T00:29:30;100742.22;;;29.35;40.36
78625;BME280;67944;0.000;0.000;2023-06-22T00:31:55;100770.91;;;29.34;40.46
78625;BME280;67944;0.000;0.000;2023-06-22T00:34:21;100777.34;;;29.33;40.39
78625;BME280;67944;0.000;0.000;2023-06-22T00:36:46;100766.84;;;29.32;40.52
78625;BME280;67944;0.000;0.000;2023-06-22T00:39:12;100752.59;;;29.31;40.27
78625;BME280;67944;0.000;0.000;2023-06-22T00:41:38;100749.09;;;29.31;40.39
78625;BME280;67944;0.000;0.000;2023-06-22T00:44:03;100755.50;;;29.30;40.59
78625;BME280;67944;0.000;0.000;2023-06-22T00:46:29;100765.41;;;29.29;40.80
78625;BME280;67944;0.000;0.000;2023-06-22T00:48:54;100821.19;;;29.27;40.36
78625;BME280;67944;0.000;0.000;2023-06-22T00:51:22;100883.69;;;29.28;40.30
78625;BME280;67944;0.000;0.000;2023-06-22T00:53:50;100933.03;;;29.27;40.19
78625;BME280;67944;0.000;0.000;2023-06-22T00:56:17;100975.16;;;29.26;40.59
78625;BME280;67944;0.000;0.000;2023-06-22T00:58:45;100998.47;;;29.26;40.63
78625;BME280;67944;0.000;0.000;2023-06-22T01:01:12;100984.25;;;29.25;40.79
78625;BME280;67944;0.000;0.000;2023-06-22T01:03:39;100889.53;;;29.25;40.85
78625;BME280;67944;0.000;0.000;2023-06-22T01:06:23;100787.78;;;29.23;40.33
78625;BME280;67944;0.000;0.000;2023-06-22T01:09:00;100805.19;;;29.21;40.40
78625;BME280;67944;0.000;0.000;2023-06-22T01:11:35;100776.72;;;29.20;40.70
78625;BME280;67944;0.000;0.000;2023-06-22T01:14:04;100724.13;;;29.19;40.85
78625;BME280;67944;0.000;0.000;2023-06-22T01:16:35;100682.25;;;29.18;41.06
78625;BME280;67944;0.000;0.000;2023-06-22T01:19:17;100633.38;;;29.16;41.46
78625;BME280;67944;0.000;0.000;2023-06-22T01:21:46;100634.66;;;29.13;41.64
78625;BME280;67944;0.000;0.000;2023-06-22T01:27:08;100649.59;;;29.09;41.91
78625;BME280;67944;0.000;0.000;2023-06-22T01:29:37;100656.47;;;29.05;42.23
78625;BME280;67944;0.000;0.000;2023-06-22T01:32:06;100667.66;;;29.02;42.58
78625;BME280;67944;0.000;0.000;2023-06-22T01:34:33;100679.69;;;28.99;42.92
78625;BME280;67944;0.000;0.000;2023-06-22T01:36:59;100677.22;;;28.98;43.02
78625;BME280;67944;0.000;0.000;2023-06-22T01:39:27;100696.22;;;28.96;43.06
78625;BME280;67944;0.000;0.000;2023-06-22T01:41:53;100690.50;;;28.93;43.47
78625;BME280;67944;0.000;0.000;2023-06-22T01:44:19;100690.72;;;28.91;43.58
78625;BME280;67944;0.000;0.000;2023-06-22T01:46:46;100693.03;;;28.88;43.59
78625;BME280;67944;0.000;0.000;2023-06-22T01:49:12;100701.31;;;28.86;44.08
78625;BME280;67944;0.000;0.000;2023-06-22T01:51:38;100703.19;;;28.86;44.26
78625;BME280;67944;0.000;0.000;2023-06-22T01:54:06;100701.75;;;28.83;44.03
78625;BME280;67944;0.000;0.000;2023-06-22T01:56:33;100710.03;;;28.82;44.48
78625;BME280;67944;0.000;0.000;2023-06-22T01:59:17;100712.09;;;28.80;44.88
78625;BME280;67944;0.000;0.000;2023-06-22T02:01:54;100703.50;;;28.78;44.81
78625;BME280;67944;0.000;0.000;2023-06-22T02:04:26;100714.44;;;28.76;45.16
78625;BME280;67944;0.000;0.000;2023-06-22T02:06:58;100711.16;;;28.74;45.06
78625;BME280;67944;0.000;0.000;2023-06-22T02:09:29;100712.44;;;28.72;44.91
78625;BME280;67944;0.000;0.000;2023-06-22T02:11:56;100721.75;;;28.69;45.55
78625;BME280;67944;0.000;0.000;2023-06-22T02:14:24;100719.53;;;28.66;45.60
78625;BME280;67944;0.000;0.000;2023-06-22T02:16:51;100718.94;;;28.64;45.62
78625;BME280;67944;0.000;0.000;2023-06-22T02:19:17;100719.16;;;28.62;45.42
78625;BME280;67944;0.000;0.000;2023-06-22T02:21:47;100708.66;;;28.61;45.48
78625;BME280;67944;0.000;0.000;2023-06-22T02:24:12;100717.19;;;28.58;45.88
78625;BME280;67944;0.000;0.000;2023-06-22T02:26:38;100712.88;;;28.57;46.00
78625;BME280;67944;0.000;0.000;2023-06-22T02:29:07;100711.44;;;28.54;45.85
78625;BME280;67944;0.000;0.000;2023-06-22T02:31:33;100704.69;;;28.52;46.00
78625;BME280;67944;0.000;0.000;2023-06-22T02:33:59;100703.88;;;28.51;46.08
78625;BME280;67944;0.000;0.000;2023-06-22T02:36:25;100706.75;;;28.50;46.12
78625;BME280;67944;0.000;0.000;2023-06-22T02:38:53;100702.66;;;28.47;46.39
78625;BME280;67944;0.000;0.000;2023-06-22T02:41:19;100699.41;;;28.45;46.32
78625;BME280;67944;0.000;0.000;2023-06-22T02:43:45;100692.41;;;28.44;46.44
78625;BME280;67944;0.000;0.000;2023-06-22T02:46:12;100697.41;;;28.41;46.68
78625;BME280;67944;0.000;0.000;2023-06-22T02:48:39;100695.75;;;28.40;46.72
78625;BME280;67944;0.000;0.000;2023-06-22T02:51:04;100686.31;;;28.37;47.10
78625;BME280;67944;0.000;0.000;2023-06-22T02:53:30;100682.03;;;28.36;46.90
78625;BME280;67944;0.000;0.000;2023-06-22T02:55:55;100677.72;;;28.35;46.85
78625;BME280;67944;0.000;0.000;2023-06-22T02:58:21;100678.97;;;28.33;47.02
78625;BME280;67944;0.000;0.000;2023-06-22T03:00:46;100676.28;;;28.33;46.91
78625;BME280;67944;0.000;0.000;2023-06-22T03:03:12;100660.66;;;28.29;47.17
78625;BME280;67944;0.000;0.000;2023-06-22T03:05:37;100665.44;;;28.27;47.08
78625;BME280;67944;0.000;0.000;2023-06-22T03:08:03;100666.47;;;28.26;47.30
78625;BME280;67944;0.000;0.000;2023-06-22T03:10:28;100668.56;;;28.24;47.44
78625;BME280;67944;0.000;0.000;2023-06-22T03:12:54;100673.31;;;28.22;47.45
78625;BME280;67944;0.000;0.000;2023-06-22T03:15:19;100670.88;;;28.21;47.73
78625;BME280;67944;0.000;0.000;2023-06-22T03:17:45;100662.44;;;28.17;47.66
78625;BME280;67944;0.000;0.000;2023-06-22T03:20:11;100657.19;;;28.11;47.88
78625;BME280;67944;0.000;0.000;2023-06-22T03:22:38;100654.56;;;28.04;47.76
78625;BME280;67944;0.000;0.000;2023-06-22T03:25:04;100647.66;;;27.96;48.08
78625;BME280;67944;0.000;0.000;2023-06-22T03:27:36;100656.59;;;27.90;48.15
78625;BME280;67944;0.000;0.000;2023-06-22T03:30:01;100650.06;;;27.86;48.29
78625;BME280;67944;0.000;0.000;2023-06-22T03:32:27;100652.38;;;27.83;48.45
78625;BME280;67944;0.000;0.000;2023-06-22T03:34:53;100641.28;;;27.79;48.91
78625;BME280;67944;0.000;0.000;2023-06-22T03:37:19;100640.91;;;27.76;48.98
78625;BME280;67944;0.000;0.000;2023-06-22T03:39:44;100636.00;;;27.73;48.86
78625;BME280;67944;0.000;0.000;2023-06-22T03:42:09;100635.66;;;27.69;49.23
78625;BME280;67944;0.000;0.000;2023-06-22T03:44:36;100640.63;;;27.66;49.28
78625;BME280;67944;0.000;0.000;2023-06-22T03:47:03;100637.56;;;27.62;49.35
78625;BME280;67944;0.000;0.000;2023-06-22T03:49:29;100638.81;;;27.59;49.70
78625;BME280;67944;0.000;0.000;2023-06-22T03:51:54;100635.75;;;27.56;49.73
78625;BME280;67944;0.000;0.000;2023-06-22T03:54:20;100639.91;;;27.52;49.86
78625;BME280;67944;0.000;0.000;2023-06-22T03:56:45;100639.75;;;27.47;49.83
78625;BME280;67944;0.000;0.000;2023-06-22T03:59:11;100650.69;;;27.45;50.18
78625;BME280;67944;0.000;0.000;2023-06-22T04:01:36;100656.47;;;27.42;50.05
78625;BME280;67944;0.000;0.000;2023-06-22T04:04:02;100653.19;;;27.40;50.39
78625;BME280;67944;0.000;0.000;2023-06-22T04:06:27;100656.31;;;27.37;50.93
78625;BME280;67944;0.000;0.000;2023-06-22T04:08:52;100658.59;;;27.34;50.98
78625;BME280;67944;0.000;0.000;2023-06-22T04:11:18;100665.41;;;27.29;50.74
78625;BME280;67944;0.000;0.000;2023-06-22T04:13:43;100664.59;;;27.29;50.91
78625;BME280;67944;0.000;0.000;2023-06-22T04:16:09;100675.75;;;27.26;51.24
78625;BME280;67944;0.000;0.000;2023-06-22T04:18:34;100664.47;;;27.24;51.64
78625;BME280;67944;0.000;0.000;2023-06-22T04:21:01;100665.28;;;27.24;51.78
78625;BME280;67944;0.000;0.000;2023-06-22T04:23:27;100654.16;;;27.27;51.60
78625;BME280;67944;0.000;0.000;2023-06-22T04:25:52;100650.34;;;27.35;51.34
78625;BME280;67944;0.000;0.000;2023-06-22T04:28:18;100655.50;;;27.37;52.01
78625;BME280;67944;0.000;0.000;2023-06-22T04:30:43;100654.66;;;27.36;52.00
78625;BME280;67944;0.000;0.000;2023-06-22T04:33:15;100647.91;;;27.34;51.92
78625;BME280;67944;0.000;0.000;2023-06-22T04:35:41;100646.25;;;27.33;52.04
78625;BME280;67944;0.000;0.000;2023-06-22T04:38:07;100654.50;;;27.31;51.69
78625;BME280;67944;0.000;0.000;2023-06-22T04:40:32;100656.59;;;27.29;52.18
78625;BME280;67944;0.000;0.000;2023-06-22T04:42:58;100640.19;;;27.25;51.97
78625;BME280;67944;0.000;0.000;2023-06-22T04:45:28;100642.25;;;27.23;52.49
78625;BME280;67944;0.000;0.000;2023-06-22T04:47:55;100649.69;;;27.21;52.58
78625;BME280;67944;0.000;0.000;2023-06-22T04:50:20;100646.19;;;27.21;52.14
78625;BME280;67944;0.000;0.000;2023-06-22T04:52:47;100645.97;;;27.22;52.42
78625;BME280;67944;0.000;0.000;2023-06-22T04:55:13;100651.53;;;27.21;52.42
78625;BME280;67944;0.000;0.000;2023-06-22T04:57:38;100641.06;;;27.19;52.35
78625;BME280;67944;0.000;0.000;2023-06-22T05:00:06;100641.28;;;27.18;52.89
78625;BME280;67944;0.000;0.000;2023-06-22T05:02:40;100646.84;;;27.16;52.44
78625;BME280;67944;0.000;0.000;2023-06-22T05:05:06;100633.91;;;27.13;52.71
78625;BME280;67944;0.000;0.000;2023-06-22T05:07:33;100642.13;;;27.12;52.60
78625;BME280;67944;0.000;0.000;2023-06-22T05:10:00;100633.50;;;27.10;52.80
78625;BME280;67944;0.000;0.000;2023-06-22T05:12:27;100625.72;;;27.08;52.82
78625;BME280;67944;0.000;0.000;2023-06-22T05:14:52;100625.94;;;27.07;52.61
78625;BME280;67944;0.000;0.000;2023-06-22T05:17:17;100621.66;;;27.06;52.66
78625;BME280;67944;0.000;0.000;2023-06-22T05:19:44;100621.03;;;27.04;53.27
78625;BME280;67944;0.000;0.000;2023-06-22T05:22:14;100615.09;;;27.02;52.70
78625;BME280;67944;0.000;0.000;2023-06-22T05:24:40;100615.31;;;27.00;53.04
78625;BME280;67944;0.000;0.000;2023-06-22T05:27:06;100606.47;;;27.00;53.20
78625;BME280;67944;0.000;0.000;2023-06-22T05:29:31;100612.63;;;27.00;53.16
78625;BME280;67944;0.000;0.000;2023-06-22T05:31:57;100610.56;;;27.02;52.97
78625;BME280;67944;0.000;0.000;2023-06-22T05:34:22;100614.66;;;27.05;53.08
78625;BME280;67944;0.000;0.000;2023-06-22T05:36:48;100606.66;;;27.05;53.29
78625;BME280;67944;0.000;0.000;2023-06-22T05:39:14;100599.19;;;27.07;53.17
78625;BME280;67944;0.000;0.000;2023-06-22T05:41:40;100603.28;;;27.09;53.18
78625;BME280;67944;0.000;0.000;2023-06-22T05:44:05;100601.22;;;27.11;52.95
78625;BME280;67944;0.000;0.000;2023-06-22T05:46:31;100604.28;;;27.15;53.34
78625;BME280;67944;0.000;0.000;2023-06-22T05:48:56;100597.88;;;27.16;53.27
78625;BME280;67944;0.000;0.000;2023-06-22T05:51:21;100601.75;;;27.20;53.15
78625;BME280;67944;0.000;0.000;2023-06-22T05:53:47;100593.31;;;27.23;53.35
78625;BME280;67944;0.000;0.000;2023-06-22T05:56:15;100604.38;;;27.26;53.33
78625;BME280;67944;0.000;0.000;2023-06-22T05:58:41;100603.09;;;27.29;53.33
78625;BME280;67944;0.000;0.000;2023-06-22T06:01:06;100600.78;;;27.33;53.57
78625;BME280;67944;0.000;0.000;2023-06-22T06:03:32;100599.75;;;27.34;53.34
78625;BME280;67944;0.000;0.000;2023-06-22T06:05:57;100612.69;;;27.37;53.39
78625;BME280;67944;0.000;0.000;2023-06-22T06:08:23;100603.41;;;27.39;52.98
78625;BME280;67944;0.000;0.000;2023-06-22T06:10:48;100597.63;;;27.42;53.28
78625;BME280;67944;0.000;0.000;2023-06-22T06:13:14;100602.53;;;27.45;53.00
78625;BME280;67944;0.000;0.000;2023-06-22T06:15:39;100588.47;;;27.50;53.11
78625;BME280;67944;0.000;0.000;2023-06-22T06:18:05;100588.03;;;27.53;53.22
78625;BME280;67944;0.000;0.000;2023-06-22T06:20:32;100597.25;;;27.57;53.17
78625;BME280;67944;0.000;0.000;2023-06-22T06:22:57;100593.34;;;27.59;52.96
78625;BME280;67944;0.000;0.000;2023-06-22T06:25:23;100595.13;;;27.66;53.32
78625;BME280;67944;0.000;0.000;2023-06-22T06:27:50;100595.28;;;27.71;53.41
78625;BME280;67944;0.000;0.000;2023-06-22T06:30:18;100596.44;;;27.75;52.94
78625;BME280;67944;0.000;0.000;2023-06-22T06:32:46;100604.63;;;27.80;52.84
78625;BME280;67944;0.000;0.000;2023-06-22T06:35:14;100593.47;;;27.83;52.98
78625;BME280;67944;0.000;0.000;2023-06-22T06:37:43;100590.34;;;27.86;53.16
78625;BME280;67944;0.000;0.000;2023-06-22T06:40:10;100586.41;;;27.88;52.87
78625;BME280;67944;0.000;0.000;2023-06-22T06:42:37;100578.97;;;27.90;52.45
78625;BME280;67944;0.000;0.000;2023-06-22T06:45:06;100580.13;;;27.94;52.54
78625;BME280;67944;0.000;0.000;2023-06-22T06:47:31;100580.28;;;27.99;52.36
78625;BME280;67944;0.000;0.000;2023-06-22T06:49:57;100578.78;;;28.04;52.25
78625;BME280;67944;0.000;0.000;2023-06-22T06:52:22;100573.81;;;28.07;52.21
78625;BME280;67944;0.000;0.000;2023-06-22T06:54:48;100579.53;;;28.11;51.98
78625;BME280;67944;0.000;0.000;2023-06-22T06:57:13;100588.72;;;28.15;51.69
78625;BME280;67944;0.000;0.000;2023-06-22T06:59:40;100576.50;;;28.19;51.61
78625;BME280;67944;0.000;0.000;2023-06-22T07:02:06;100581.44;;;28.22;51.44
78625;BME280;67944;0.000;0.000;2023-06-22T07:04:32;100583.66;;;28.25;51.59
78625;BME280;67944;0.000;0.000;2023-06-22T07:06:58;100583.00;;;28.29;51.36
78625;BME280;67944;0.000;0.000;2023-06-22T07:09:24;100575.53;;;28.31;51.42
78625;BME280;67944;0.000;0.000;2023-06-22T07:11:49;100573.47;;;28.34;50.95
78625;BME280;67944;0.000;0.000;2023-06-22T07:14:15;100582.09;;;28.36;50.96
78625;BME280;67944;0.000;0.000;2023-06-22T07:16:40;100580.56;;;28.40;50.82
78625;BME280;67944;0.000;0.000;2023-06-22T07:19:07;100579.28;;;28.42;50.49
78625;BME280;67944;0.000;0.000;2023-06-22T07:21:32;100572.88;;;28.43;50.44
78625;BME280;67944;0.000;0.000;2023-06-22T07:23:58;100567.06;;;28.46;50.37
78625;BME280;67944;0.000;0.000;2023-06-22T07:26:23;100550.53;;;28.49;49.98
78625;BME280;67944;0.000;0.000;2023-06-22T07:28:49;100553.22;;;28.49;50.14
78625;BME280;67944;0.000;0.000;2023-06-22T07:31:16;100558.34;;;28.51;49.97
78625;BME280;67944;0.000;0.000;2023-06-22T07:33:41;100550.91;;;28.53;49.86
78625;BME280;67944;0.000;0.000;2023-06-22T07:36:07;100552.31;;;28.55;49.76
78625;BME280;67944;0.000;0.000;2023-06-22T07:38:33;100554.50;;;28.58;49.56
78625;BME280;67944;0.000;0.000;2023-06-22T07:41:00;100554.41;;;28.65;49.85
78625;BME280;67944;0.000;0.000;2023-06-22T07:43:26;100557.66;;;28.67;49.57
78625;BME280;67944;0.000;0.000;2023-06-22T07:45:51;100573.88;;;28.72;49.31
78625;BME280;67944;0.000;0.000;2023-06-22T07:48:21;100564.56;;;28.75;49.34
78625;BME280;67944;0.000;0.000;2023-06-22T07:50:47;100570.28;;;28.78;49.44
78625;BME280;67944;0.000;0.000;2023-06-22T07:53:13;100563.41;;;28.82;49.31
78625;BME280;67944;0.000;0.000;2023-06-22T07:55:38;100565.63;;;28.85;49.05
78625;BME280;67944;0.000;0.000;2023-06-22T07:58:05;100558.75;;;28.89;49.13
78625;BME280;67944;0.000;0.000;2023-06-22T08:00:30;100561.78;;;28.93;49.28
78625;BME280;67944;0.000;0.000;2023-06-22T08:02:56;100555.16;;;28.95;48.83
78625;BME280;67944;0.000;0.000;2023-06-22T08:05:21;100559.81;;;29.00;48.79
78625;BME280;67944;0.000;0.000;2023-06-22T08:07:47;100551.28;;;29.03;48.84
78625;BME280;67944;0.000;0.000;2023-06-22T08:10:13;100555.34;;;29.06;48.57
78625;BME280;67944;0.000;0.000;2023-06-22T08:12:39;100551.16;;;29.10;48.54
78625;BME280;67944;0.000;0.000;2023-06-22T08:15:05;100539.97;;;29.13;48.53
78625;BME280;67944;0.000;0.000;2023-06-22T08:17:33;100540.56;;;29.15;48.26
78625;BME280;67944;0.000;0.000;2023-06-22T08:19:58;100537.19;;;29.19;48.37
78625;BME280;67944;0.000;0.000;2023-06-22T08:22:24;100528.66;;;29.22;48.52
78625;BME280;67944;0.000;0.000;2023-06-22T08:24:49;100526.28;;;29.26;48.22
78625;BME280;67944;0.000;0.000;2023-06-22T08:27:15;100522.09;;;29.30;48.13
78625;BME280;67944;0.000;0.000;2023-06-22T08:29:42;100519.75;;;29.33;47.70
78625;BME280;67944;0.000;0.000;2023-06-22T08:32:09;100519.28;;;29.37;47.35
78625;BME280;67944;0.000;0.000;2023-06-22T08:34:35;100522.13;;;29.42;47.87
78625;BME280;67944;0.000;0.000;2023-06-22T08:37:01;100516.50;;;29.43;47.30
78625;BME280;67944;0.000;0.000;2023-06-22T08:39:26;100514.47;;;29.50;47.32
78625;BME280;67944;0.000;0.000;2023-06-22T08:41:53;100538.97;;;29.54;47.71
78625;BME280;67944;0.000;0.000;2023-06-22T08:44:18;100530.47;;;29.57;47.40
78625;BME280;67944;0.000;0.000;2023-06-22T08:46:45;100516.56;;;29.60;47.00
78625;BME280;67944;0.000;0.000;2023-06-22T08:49:10;100523.34;;;29.62;46.74
78625;BME280;67944;0.000;0.000;2023-06-22T08:51:36;100514.53;;;29.67;47.18
78625;BME280;67944;0.000;0.000;2023-06-22T08:54:01;100520.00;;;29.72;47.04
78625;BME280;67944;0.000;0.000;2023-06-22T08:56:27;100521.16;;;29.76;46.95
78625;BME280;67944;0.000;0.000;2023-06-22T08:58:53;100524.19;;;29.80;46.77
78625;BME280;67944;0.000;0.000;2023-06-22T09:01:18;100526.41;;;29.83;46.54
78625;BME280;67944;0.000;0.000;2023-06-22T09:03:44;100513.56;;;29.85;46.89
78625;BME280;67944;0.000;0.000;2023-06-22T09:06:13;100508.25;;;29.90;46.84
78625;BME280;67944;0.000;0.000;2023-06-22T09:08:39;100497.84;;;29.93;46.88
78625;BME280;67944;0.000;0.000;2023-06-22T09:11:05;100501.69;;;29.97;45.90
78625;BME280;67944;0.000;0.000;2023-06-22T09:13:32;100494.00;;;30.01;46.55
78625;BME280;67944;0.000;0.000;2023-06-22T09:15:58;100498.88;;;30.04;46.36
78625;BME280;67944;0.000;0.000;2023-06-22T09:18:23;100492.22;;;30.07;46.33
78625;BME280;67944;0.000;0.000;2023-06-22T09:20:49;100504.34;;;30.09;46.42
78625;BME280;67944;0.000;0.000;2023-06-22T09:23:14;100492.28;;;30.12;46.13
78625;BME280;67944;0.000;0.000;2023-06-22T09:25:40;100491.56;;;30.16;46.29
78625;BME280;67944;0.000;0.000;2023-06-22T09:28:06;100490.03;;;30.20;45.68
78625;BME280;67944;0.000;0.000;2023-06-22T09:30:31;100490.59;;;30.22;45.34
78625;BME280;67944;0.000;0.000;2023-06-22T09:32:57;100490.13;;;30.25;45.35
78625;BME280;67944;0.000;0.000;2023-06-22T09:35:22;100486.38;;;30.26;45.01
78625;BME280;67944;0.000;0.000;2023-06-22T09:37:48;100484.00;;;30.30;45.40
78625;BME280;67944;0.000;0.000;2023-06-22T09:40:13;100478.94;;;30.33;45.08
78625;BME280;67944;0.000;0.000;2023-06-22T09:42:41;100477.63;;;30.36;45.18
78625;BME280;67944;0.000;0.000;2023-06-22T09:45:07;100475.28;;;30.40;44.99
78625;BME280;67944;0.000;0.000;2023-06-22T09:47:33;100469.41;;;30.43;45.71
78625;BME280;67944;0.000;0.000;2023-06-22T09:49:58;100454.44;;;30.47;44.96
78625;BME280;67944;0.000;0.000;2023-06-22T09:52:25;100448.31;;;30.51;45.58
78625;BME280;67944;0.000;0.000;2023-06-22T09:54:50;100441.41;;;30.55;45.29
78625;BME280;67944;0.000;0.000;2023-06-22T09:57:16;100434.22;;;30.61;45.35
78625;BME280;67944;0.000;0.000;2023-06-22T09:59:41;100430.00;;;30.65;44.99
78625;BME280;67944;0.000;0.000;2023-06-22T10:02:07;100425.75;;;30.69;44.57
78625;BME280;67944;0.000;0.000;2023-06-22T10:04:34;100425.81;;;30.74;44.79
78625;BME280;67944;0.000;0.000;2023-06-22T10:07:00;100422.59;;;30.77;44.26
78625;BME280;67944;0.000;0.000;2023-06-22T10:09:25;100421.06;;;30.81;43.94
78625;BME280;67944;0.000;0.000;2023-06-22T10:11:51;100406.31;;;30.84;44.45
78625;BME280;67944;0.000;0.000;2023-06-22T10:14:16;100405.56;;;30.88;44.41
78625;BME280;67944;0.000;0.000;2023-06-22T10:16:42;100403.75;;;30.94;44.18
78625;BME280;67944;0.000;0.000;2023-06-22T10:19:07;100395.97;;;30.97;43.52
78625;BME280;67944;0.000;0.000;2023-06-22T10:21:33;100389.03;;;31.01;43.65
78625;BME280;67944;0.000;0.000;2023-06-22T10:23:59;100389.09;;;31.07;44.01
78625;BME280;67944;0.000;0.000;2023-06-22T10:26:31;100377.03;;;31.09;43.56
78625;BME280;67944;0.000;0.000;2023-06-22T10:28:57;100383.56;;;31.13;42.84
78625;BME280;67944;0.000;0.000;2023-06-22T10:31:22;100371.47;;;31.16;42.78
78625;BME280;67944;0.000;0.000;2023-06-22T10:33:48;100370.94;;;31.19;43.28
78625;BME280;67944;0.000;0.000;2023-06-22T10:36:15;100383.91;;;31.22;43.20
78625;BME280;67944;0.000;0.000;2023-06-22T10:38:40;100375.06;;;31.26;43.04
78625;BME280;67944;0.000;0.000;2023-06-22T10:41:05;100357.34;;;31.30;42.38
78625;BME280;67944;0.000;0.000;2023-06-22T10:43:31;100348.53;;;31.35;42.88
78625;BME280;67944;0.000;0.000;2023-06-22T10:45:56;100346.16;;;31.39;42.95
78625;BME280;67944;0.000;0.000;2023-06-22T10:48:22;100336.47;;;31.43;41.96
78625;BME280;67944;0.000;0.000;2023-06-22T10:50:47;100338.66;;;31.46;42.78
78625;BME280;67944;0.000;0.000;2023-06-22T10:53:13;100331.69;;;31.50;41.97
78625;BME280;67944;0.000;0.000;2023-06-22T10:55:38;100326.63;;;31.53;42.40
78625;BME280;67944;0.000;0.000;2023-06-22T10:58:04;100329.59;;;31.57;41.82
78625;BME280;67944;0.000;0.000;2023-06-22T11:00:29;100332.31;;;31.62;42.30
78625;BME280;67944;0.000;0.000;2023-06-22T11:02:54;100323.50;;;31.66;41.69
78625;BME280;67944;0.000;0.000;2023-06-22T11:05:20;100303.91;;;31.71;42.11
78625;BME280;67944;0.000;0.000;2023-06-22T11:07:45;100302.31;;;31.75;41.42
78625;BME280;67944;0.000;0.000;2023-06-22T11:10:12;100303.69;;;31.78;41.64
78625;BME280;67944;0.000;0.000;2023-06-22T11:12:37;100319.88;;;31.83;41.80
78625;BME280;67944;0.000;0.000;2023-06-22T11:15:03;100314.75;;;31.86;41.44
78625;BME280;67944;0.000;0.000;2023-06-22T11:17:29;100322.06;;;31.91;41.03
78625;BME280;67944;0.000;0.000;2023-06-22T11:19:54;100318.88;;;31.94;41.67
78625;BME280;67944;0.000;0.000;2023-06-22T11:22:20;100319.16;;;31.97;41.39
78625;BME280;67944;0.000;0.000;2023-06-22T11:24:45;100327.53;;;32.01;40.85
78625;BME280;67944;0.000;0.000;2023-06-22T11:27:11;100318.13;;;32.03;40.91
78625;BME280;67944;0.000;0.000;2023-06-22T11:29:36;100321.09;;;32.07;40.65
78625;BME280;67944;0.000;0.000;2023-06-22T11:32:01;100312.22;;;32.12;40.56
78625;BME280;67944;0.000;0.000;2023-06-22T11:34:27;100309.84;;;32.15;40.17
78625;BME280;67944;0.000;0.000;2023-06-22T11:36:53;100310.94;;;32.19;40.57
78625;BME280;67944;0.000;0.000;2023-06-22T11:39:18;100305.06;;;32.22;40.61
78625;BME280;67944;0.000;0.000;2023-06-22T11:41:44;100297.28;;;32.26;40.61
78625;BME280;67944;0.000;0.000;2023-06-22T11:44:09;100297.53;;;32.29;40.00
78625;BME280;67944;0.000;0.000;2023-06-22T11:46:35;100281.09;;;32.31;40.41
78625;BME280;67944;0.000;0.000;2023-06-22T11:49:01;100285.16;;;32.33;40.41
78625;BME280;67944;0.000;0.000;2023-06-22T11:51:27;100288.97;;;32.38;40.23
78625;BME280;67944;0.000;0.000;2023-06-22T11:53:53;100294.91;;;32.40;39.88
78625;BME280;67944;0.000;0.000;2023-06-22T11:56:19;100294.63;;;32.41;39.99
78625;BME280;67944;0.000;0.000;2023-06-22T11:58:44;100302.19;;;32.44;39.69
78625;BME280;67944;0.000;0.000;2023-06-22T12:01:10;100302.75;;;32.46;39.88
78625;BME280;67944;0.000;0.000;2023-06-22T12:03:35;100306.78;;;32.49;39.57
78625;BME280;67944;0.000;0.000;2023-06-22T12:06:01;100306.53;;;32.50;39.99
78625;BME280;67944;0.000;0.000;2023-06-22T12:08:26;100303.56;;;32.52;39.43
78625;BME280;67944;0.000;0.000;2023-06-22T12:10:52;100298.72;;;32.54;39.62
78625;BME280;67944;0.000;0.000;2023-06-22T12:13:19;100295.50;;;32.57;39.69
78625;BME280;67944;0.000;0.000;2023-06-22T12:15:44;100292.28;;;32.60;39.40
78625;BME280;67944;0.000;0.000;2023-06-22T12:18:10;100288.50;;;32.61;39.25
78625;BME280;67944;0.000;0.000;2023-06-22T12:20:36;100279.06;;;32.63;39.38
78625;BME280;67944;0.000;0.000;2023-06-22T12:23:01;100281.50;;;32.65;39.09
78625;BME280;67944;0.000;0.000;2023-06-22T12:25:26;100278.56;;;32.66;39.11
78625;BME280;67944;0.000;0.000;2023-06-22T12:27:52;100279.09;;;32.68;39.39
78625;BME280;67944;0.000;0.000;2023-06-22T12:30:17;100277.22;;;32.69;39.30
78625;BME280;67944;0.000;0.000;2023-06-22T12:32:43;100275.59;;;32.68;39.27
78625;BME280;67944;0.000;0.000;2023-06-22T12:35:08;100279.63;;;32.70;39.30
78625;BME280;67944;0.000;0.000;2023-06-22T12:37:42;100279.34;;;32.72;39.08
78625;BME280;67944;0.000;0.000;2023-06-22T12:40:08;100288.56;;;32.76;38.98
78625;BME280;67944;0.000;0.000;2023-06-22T12:42:34;100288.84;;;32.80;38.84
78625;BME280;67944;0.000;0.000;2023-06-22T12:44:59;100285.91;;;32.81;38.76
78625;BME280;67944;0.000;0.000;2023-06-22T12:47:24;100289.13;;;32.83;38.98
78625;BME280;67944;0.000;0.000;2023-06-22T12:49:50;100294.28;;;32.85;39.14
78625;BME280;67944;0.000;0.000;2023-06-22T12:52:15;100284.03;;;32.87;38.95
78625;BME280;67944;0.000;0.000;2023-06-22T12:54:41;100292.66;;;32.89;38.83
78625;BME280;67944;0.000;0.000;2023-06-22T12:57:06;100293.47;;;32.89;39.02